createdAt,value
2023-12-21T00:02:47.921Z,7.80
2023-12-21T00:06:13.767Z,12.38
2023-12-21T00:09:39.183Z,7.10
2023-12-21T00:13:07.777Z,4.93
2023-12-21T00:16:33.351Z,4.50
2023-12-21T00:19:59.225Z,8.05
2023-12-21T00:23:24.669Z,5.70
2023-12-21T00:26:50.459Z,7.30
2023-12-21T00:30:19.197Z,8.38
2023-12-21T00:33:44.677Z,11.38
2023-12-21T00:37:10.410Z,7.05
2023-12-21T00:40:36.389Z,4.05
2023-12-21T00:44:02.060Z,10.50
2023-12-21T00:47:30.127Z,7.22
2023-12-21T00:50:56.119Z,5.05
2023-12-21T00:54:21.887Z,9.27
2023-12-21T00:57:47.887Z,10.10
2023-12-21T01:01:13.438Z,6.32
2023-12-21T01:04:42.133Z,5.68
2023-12-21T01:08:08.273Z,7.25
2023-12-21T01:11:34.395Z,7.40
2023-12-21T01:15:02.392Z,6.70
2023-12-21T01:18:28.274Z,7.30
2023-12-21T01:21:56.476Z,3.28
2023-12-21T01:25:22.297Z,7.75
2023-12-21T01:28:47.729Z,5.25
2023-12-21T01:32:14.588Z,5.80
2023-12-21T01:35:39.976Z,5.82
2023-12-21T01:39:08.349Z,5.88
2023-12-21T01:42:34.748Z,6.20
2023-12-21T01:46:01.954Z,4.13
2023-12-21T01:49:27.555Z,9.68
2023-12-21T01:52:54.562Z,4.15
2023-12-21T01:56:22.577Z,3.78
2023-12-21T01:59:48.420Z,6.95
2023-12-21T02:03:13.936Z,5.82
2023-12-21T02:06:39.770Z,6.93
2023-12-21T02:10:05.262Z,5.93
2023-12-21T02:13:33.656Z,5.50
2023-12-21T02:17:00.655Z,4.32
2023-12-21T02:20:26.657Z,4.40
2023-12-21T02:23:53.395Z,3.72
2023-12-21T02:27:21.741Z,5.40
2023-12-21T02:30:49.183Z,8.23
2023-12-21T02:34:15.041Z,5.90
2023-12-21T02:37:40.510Z,10.20
2023-12-21T02:41:06.356Z,6.45
2023-12-21T02:44:34.373Z,8.82
2023-12-21T02:48:00.324Z,10.93
2023-12-21T02:51:25.939Z,7.95
2023-12-21T02:54:51.624Z,7.00
2023-12-21T02:58:17.468Z,11.18
2023-12-21T03:01:46.954Z,16.13
2023-12-21T03:05:12.737Z,9.70
2023-12-21T03:08:38.225Z,11.98
2023-12-21T03:12:03.946Z,10.93
2023-12-21T03:15:29.315Z,7.95
2023-12-21T03:18:57.766Z,8.32
2023-12-21T03:22:23.599Z,14.20
2023-12-21T03:25:49.070Z,8.15
2023-12-21T03:29:14.860Z,8.98
2023-12-21T03:32:40.631Z,6.63
2023-12-21T03:36:09.708Z,4.75
2023-12-21T03:39:35.064Z,6.47
2023-12-21T03:43:00.911Z,8.98
2023-12-21T03:46:26.427Z,6.57
2023-12-21T03:49:52.188Z,5.10
2023-12-21T03:53:20.936Z,5.10
2023-12-21T03:56:46.747Z,3.70
2023-12-21T04:00:12.795Z,7.00
2023-12-21T04:03:38.664Z,7.20
2023-12-21T04:07:04.151Z,6.72
2023-12-21T04:10:32.603Z,6.75
2023-12-21T04:13:58.026Z,7.32
2023-12-21T04:17:23.740Z,7.50
2023-12-21T04:20:49.141Z,7.72
2023-12-21T04:24:16.048Z,5.60
2023-12-21T04:27:44.028Z,6.85
2023-12-21T04:31:09.911Z,4.90
2023-12-21T04:34:35.392Z,6.60
2023-12-21T04:38:01.195Z,6.70
2023-12-21T04:41:28.916Z,6.90
2023-12-21T04:44:57.229Z,6.68
2023-12-21T04:48:22.704Z,6.50
2023-12-21T04:51:48.870Z,5.57
2023-12-21T04:55:14.569Z,6.25
2023-12-21T04:58:45.089Z,6.25
2023-12-21T05:02:13.262Z,6.82
2023-12-21T05:05:39.049Z,7.60
2023-12-21T05:09:04.772Z,4.80
2023-12-21T05:12:30.903Z,4.47
2023-12-21T05:15:56.329Z,6.18
2023-12-21T05:19:24.791Z,7.22
2023-12-21T05:22:50.532Z,5.22
2023-12-21T05:26:17.440Z,5.80
2023-12-21T05:29:44.651Z,4.75
2023-12-21T05:33:10.526Z,4.40
2023-12-21T05:36:38.531Z,6.78
2023-12-21T05:40:04.588Z,3.92
2023-12-21T05:43:29.988Z,4.97
2023-12-21T05:46:55.897Z,2.83
2023-12-21T05:50:21.730Z,3.70
2023-12-21T05:53:52.029Z,5.32
2023-12-21T05:57:18.052Z,4.80
2023-12-21T06:00:44.602Z,2.53
2023-12-21T06:04:10.525Z,2.97
2023-12-21T06:07:37.403Z,5.57
2023-12-21T06:11:05.830Z,5.03
2023-12-21T06:14:33.104Z,6.53
2023-12-21T06:17:59.510Z,5.60
2023-12-21T06:21:25.080Z,5.35
2023-12-21T06:24:58.833Z,5.20
2023-12-21T06:28:27.046Z,4.72
2023-12-21T06:31:54.152Z,5.72
2023-12-21T06:35:19.831Z,5.18
2023-12-21T06:38:46.115Z,8.82
2023-12-21T06:42:11.594Z,7.60
2023-12-21T06:45:39.983Z,8.32
2023-12-21T06:49:06.152Z,6.45
2023-12-21T06:52:33.899Z,6.03
2023-12-21T06:56:13.754Z,7.07
2023-12-21T06:59:45.520Z,7.97
2023-12-21T07:03:13.546Z,6.55
2023-12-21T07:06:39.383Z,7.40
2023-12-21T07:10:05.125Z,7.07
2023-12-21T07:13:30.960Z,6.93
2023-12-21T07:16:56.777Z,9.75
2023-12-21T07:20:27.327Z,6.47
2023-12-21T07:23:52.709Z,7.28
2023-12-21T07:27:18.795Z,5.85
2023-12-21T07:30:44.307Z,6.75
2023-12-21T07:34:10.728Z,10.93
2023-12-21T07:37:38.944Z,7.95
2023-12-21T07:41:05.210Z,8.27
2023-12-21T07:44:31.770Z,5.35
2023-12-21T07:47:57.555Z,6.13
2023-12-21T07:51:23.049Z,6.47
2023-12-21T07:54:51.508Z,6.80
2023-12-21T07:58:16.926Z,5.70
2023-12-21T08:01:42.828Z,4.75
2023-12-21T08:05:08.792Z,8.48
2023-12-21T08:08:36.323Z,6.38
2023-12-21T08:12:08.109Z,6.05
2023-12-21T08:15:34.002Z,7.35
2023-12-21T08:19:00.433Z,7.63
2023-12-21T08:22:26.121Z,8.48
2023-12-21T08:25:52.124Z,7.00
2023-12-21T08:29:20.276Z,9.80
2023-12-21T08:32:46.857Z,5.82
2023-12-21T08:36:13.147Z,8.73
2023-12-21T08:39:41.106Z,7.97
2023-12-21T08:43:09.512Z,9.43
2023-12-21T08:46:37.971Z,7.40
2023-12-21T08:50:05.651Z,8.27
2023-12-21T08:53:31.875Z,7.50
2023-12-21T08:56:58.500Z,4.68
2023-12-21T09:00:24.489Z,6.00
2023-12-21T09:03:52.585Z,5.78
2023-12-21T09:07:18.425Z,3.80
2023-12-21T09:10:44.021Z,6.10
2023-12-21T09:14:09.780Z,5.57
2023-12-21T09:17:35.198Z,4.80
2023-12-21T09:21:05.042Z,4.38
2023-12-21T09:24:30.437Z,7.65
2023-12-21T09:27:57.020Z,5.50
2023-12-21T09:31:23.265Z,5.00
2023-12-21T09:34:49.660Z,9.13
2023-12-21T09:38:17.734Z,5.15
2023-12-21T09:41:53.321Z,4.60
2023-12-21T09:45:23.183Z,6.38
2023-12-21T09:48:49.445Z,4.95
2023-12-21T09:52:15.815Z,4.93
2023-12-21T09:55:44.126Z,4.03
2023-12-21T09:59:09.913Z,3.58
2023-12-21T10:02:35.366Z,5.15
2023-12-21T10:06:01.407Z,5.68
2023-12-21T10:09:27.003Z,5.50
2023-12-21T10:12:55.432Z,4.00
2023-12-21T10:16:20.888Z,5.32
2023-12-21T10:19:48.486Z,2.95
2023-12-21T10:23:14.232Z,3.47
2023-12-21T10:26:48.442Z,3.08
2023-12-21T10:30:18.778Z,3.97
2023-12-21T10:33:45.567Z,4.70
2023-12-21T10:37:11.168Z,2.67
2023-12-21T10:40:37.066Z,2.70
2023-12-21T10:44:05.454Z,3.38
2023-12-21T10:47:34.101Z,3.20
2023-12-21T10:50:59.898Z,2.55
2023-12-21T10:54:26.310Z,3.22
2023-12-21T10:57:52.903Z,1.35
2023-12-21T11:01:20.753Z,2.42
2023-12-21T11:04:49.332Z,4.80
2023-12-21T11:08:15.406Z,3.40
2023-12-21T11:11:40.850Z,2.80
2023-12-21T11:15:07.249Z,2.50
2023-12-21T11:18:33.097Z,2.83
2023-12-21T11:22:02.124Z,2.22
2023-12-21T11:25:27.870Z,1.77
2023-12-21T11:28:55.878Z,2.10
2023-12-21T11:32:26.832Z,1.58
2023-12-21T11:35:57.085Z,1.88
2023-12-21T11:39:25.738Z,1.23
2023-12-21T11:42:51.949Z,2.05
2023-12-21T11:46:19.109Z,1.77
2023-12-21T11:49:44.830Z,2.08
2023-12-21T11:53:14.501Z,1.80
2023-12-21T11:56:45.214Z,2.25
2023-12-21T12:00:12.288Z,2.60
2023-12-21T12:03:38.112Z,2.38
2023-12-21T12:07:04.273Z,1.38
2023-12-21T12:10:30.106Z,1.65
2023-12-21T12:14:00.204Z,2.20
2023-12-21T12:17:28.574Z,2.85
2023-12-21T12:20:54.977Z,3.55
2023-12-21T12:24:22.615Z,1.85
2023-12-21T12:27:49.043Z,2.97
2023-12-21T12:31:19.030Z,2.58
2023-12-21T12:34:45.378Z,3.83
2023-12-21T12:38:11.272Z,2.88
2023-12-21T12:41:36.990Z,3.15
2023-12-21T12:45:05.178Z,1.48
2023-12-21T12:48:33.808Z,2.33
2023-12-21T12:51:59.192Z,3.40
2023-12-21T12:55:25.211Z,2.08
2023-12-21T12:58:58.336Z,2.22
2023-12-21T13:02:25.305Z,1.70
2023-12-21T13:05:58.682Z,1.30
2023-12-21T13:09:32.443Z,1.05
2023-12-21T13:12:57.829Z,1.42
2023-12-21T13:16:23.695Z,0.40
2023-12-21T13:19:49.638Z,0.80
2023-12-21T13:23:18.093Z,0.68
2023-12-21T13:26:44.770Z,0.43
2023-12-21T13:30:12.369Z,1.80
2023-12-21T13:33:38.837Z,1.25
2023-12-21T13:37:05.650Z,1.33
2023-12-21T13:40:34.352Z,0.50
2023-12-21T13:44:01.245Z,0.88
2023-12-21T13:47:26.889Z,1.02
2023-12-21T13:50:52.599Z,1.08
2023-12-21T13:54:20.215Z,0.73
2023-12-21T13:57:48.762Z,1.73
2023-12-21T14:01:14.437Z,0.60
2023-12-21T14:04:40.412Z,1.52
2023-12-21T14:08:06.645Z,1.58
2023-12-21T14:11:33.248Z,1.88
2023-12-21T14:15:01.250Z,1.63
2023-12-21T14:18:27.408Z,1.70
2023-12-21T14:21:53.394Z,1.38
2023-12-21T14:25:19.900Z,1.00
2023-12-21T14:28:56.526Z,0.60
2023-12-21T14:32:26.116Z,2.03
2023-12-21T14:35:51.636Z,3.00
2023-12-21T14:39:18.047Z,0.60
2023-12-21T14:42:43.829Z,0.85
2023-12-21T14:46:09.720Z,0.82
2023-12-21T14:49:38.476Z,6.82
2023-12-21T14:53:04.743Z,2.05
2023-12-21T14:56:30.082Z,2.80
2023-12-21T14:59:57.310Z,2.42
2023-12-21T15:03:22.707Z,5.53
2023-12-21T15:06:51.856Z,1.95
2023-12-21T15:10:18.781Z,0.50
2023-12-21T15:13:44.261Z,1.40
2023-12-21T15:17:10.152Z,4.15
2023-12-21T15:20:35.604Z,1.15
2023-12-21T15:24:04.060Z,1.73
2023-12-21T15:27:29.845Z,1.73
2023-12-21T15:30:56.001Z,6.35
2023-12-21T15:34:21.532Z,3.00
2023-12-21T15:37:48.187Z,4.85
2023-12-21T15:41:24.516Z,3.90
2023-12-21T15:44:50.392Z,8.63
2023-12-21T15:48:16.554Z,3.38
2023-12-21T15:51:42.379Z,6.53
2023-12-21T15:55:10.733Z,5.35
2023-12-21T15:58:39.149Z,5.72
2023-12-21T16:02:04.680Z,8.82
2023-12-21T16:05:30.505Z,9.38
2023-12-21T16:08:56.016Z,12.82
2023-12-21T16:12:21.816Z,10.07
2023-12-21T16:15:49.840Z,9.30
2023-12-21T16:19:15.617Z,7.25
2023-12-21T16:22:41.049Z,10.20
2023-12-21T16:26:07.083Z,12.00
2023-12-21T16:29:32.479Z,9.90
2023-12-21T16:33:00.963Z,9.55
2023-12-21T16:36:26.387Z,6.82
2023-12-21T16:39:52.211Z,11.00
2023-12-21T16:43:17.589Z,6.28
2023-12-21T16:46:43.386Z,8.52
2023-12-21T16:50:12.253Z,10.07
2023-12-21T16:53:38.769Z,8.45
2023-12-21T16:57:04.646Z,9.45
2023-12-21T17:00:30.900Z,11.35
2023-12-21T17:03:59.427Z,8.55
2023-12-21T17:07:28.309Z,12.38
2023-12-21T17:10:56.444Z,8.90
2023-12-21T17:14:24.029Z,17.40
2023-12-21T17:17:49.978Z,8.25
2023-12-21T17:21:15.547Z,10.93
2023-12-21T17:24:43.964Z,8.25
2023-12-21T17:28:12.611Z,16.40
2023-12-21T17:31:38.519Z,6.00
2023-12-21T17:35:03.994Z,19.48
2023-12-21T17:38:29.749Z,8.00
2023-12-21T17:41:58.459Z,10.27
2023-12-21T17:45:25.774Z,10.65
2023-12-21T17:48:51.893Z,11.40
2023-12-21T17:52:17.918Z,7.63
2023-12-21T17:55:43.489Z,11.35
2023-12-21T17:59:12.379Z,11.43
2023-12-21T18:02:37.822Z,10.63
2023-12-21T18:06:04.737Z,10.15
2023-12-21T18:09:30.187Z,12.18
2023-12-21T18:12:56.022Z,18.02
2023-12-21T18:16:24.328Z,12.73
2023-12-21T18:19:50.160Z,14.00
2023-12-21T18:23:17.099Z,15.07
2023-12-21T18:26:42.993Z,13.10
2023-12-21T18:30:09.192Z,14.07
2023-12-21T18:33:39.034Z,16.48
2023-12-21T18:37:04.469Z,13.13
2023-12-21T18:40:30.454Z,12.02
2023-12-21T18:43:56.334Z,10.48
2023-12-21T18:47:21.768Z,13.10
2023-12-21T18:50:52.205Z,22.98
2023-12-21T18:54:21.138Z,15.20
2023-12-21T18:57:47.139Z,20.15
2023-12-21T19:01:14.307Z,8.55
2023-12-21T19:04:40.203Z,23.33
2023-12-21T19:08:08.457Z,17.83
2023-12-21T19:11:34.167Z,13.77
2023-12-21T19:15:01.367Z,10.63
2023-12-21T19:18:28.482Z,13.55
2023-12-21T19:21:54.306Z,10.30
2023-12-21T19:25:22.760Z,15.70
2023-12-21T19:28:49.162Z,10.80
2023-12-21T19:32:14.971Z,18.70
2023-12-21T19:35:40.532Z,13.02
2023-12-21T19:39:07.466Z,15.13
2023-12-21T19:42:35.843Z,16.65
2023-12-21T19:46:02.039Z,12.20
2023-12-21T19:49:27.822Z,13.75
2023-12-21T19:52:53.782Z,16.67
2023-12-21T19:56:19.893Z,13.43
2023-12-21T19:59:48.016Z,15.27
2023-12-21T20:03:14.797Z,16.75
2023-12-21T20:06:40.611Z,14.65
2023-12-21T20:10:06.606Z,13.15
2023-12-21T20:13:32.072Z,16.83
2023-12-21T20:17:01.318Z,13.50
2023-12-21T20:20:27.802Z,12.63
2023-12-21T20:23:53.713Z,13.23
2023-12-21T20:27:19.822Z,10.52
2023-12-21T20:30:46.349Z,15.73
2023-12-21T20:34:14.959Z,12.80
2023-12-21T20:37:41.258Z,7.88
2023-12-21T20:41:07.092Z,10.13
2023-12-21T20:44:32.514Z,11.40
2023-12-21T20:47:58.314Z,11.05
2023-12-21T20:51:26.388Z,12.95
2023-12-21T20:54:52.689Z,11.13
2023-12-21T20:58:18.112Z,11.30
2023-12-21T21:01:44.780Z,13.13
2023-12-21T21:05:10.699Z,14.57
2023-12-21T21:08:39.129Z,15.38
2023-12-21T21:12:08.814Z,13.48
2023-12-21T21:15:36.028Z,12.98
2023-12-21T21:19:01.913Z,16.38
2023-12-21T21:22:28.059Z,13.63
2023-12-21T21:25:56.138Z,5.63
2023-12-21T21:29:21.994Z,9.75
2023-12-21T21:32:47.787Z,15.63
2023-12-21T21:36:14.327Z,14.98
2023-12-21T21:39:41.868Z,11.13
2023-12-21T21:43:13.616Z,16.83
2023-12-21T21:46:39.527Z,11.40
2023-12-21T21:50:05.655Z,15.77
2023-12-21T21:53:31.108Z,13.95
2023-12-21T21:56:58.091Z,16.15
2023-12-21T22:00:26.217Z,18.63
2023-12-21T22:03:52.494Z,21.95
2023-12-21T22:07:17.943Z,14.18
2023-12-21T22:10:43.788Z,20.08
2023-12-21T22:14:09.235Z,13.65
2023-12-21T22:17:37.674Z,14.73
2023-12-21T22:21:03.114Z,19.02
2023-12-21T22:24:28.865Z,13.48
2023-12-21T22:27:54.210Z,23.50
2023-12-21T22:31:20.055Z,17.08
2023-12-21T22:34:48.266Z,19.20
2023-12-21T22:38:14.134Z,16.65
2023-12-21T22:41:39.602Z,22.80
2023-12-21T22:45:05.416Z,15.75
2023-12-21T22:48:31.425Z,17.25
2023-12-21T22:52:00.023Z,15.65
2023-12-21T22:55:25.442Z,20.45
2023-12-21T22:58:51.310Z,9.55
2023-12-21T23:02:16.753Z,13.60
2023-12-21T23:05:42.760Z,10.13
2023-12-21T23:09:11.576Z,18.95
2023-12-21T23:12:40.114Z,12.18
2023-12-21T23:16:07.260Z,19.95
2023-12-21T23:19:33.095Z,15.25
2023-12-21T23:22:58.557Z,12.02
2023-12-21T23:26:27.015Z,12.20
2023-12-21T23:29:52.969Z,9.50
2023-12-21T23:33:20.290Z,16.10
2023-12-21T23:36:46.807Z,11.88
2023-12-21T23:40:13.601Z,11.40
2023-12-21T23:43:41.714Z,9.25
2023-12-21T23:47:08.965Z,12.88
2023-12-21T23:50:34.311Z,7.75
2023-12-21T23:54:00.146Z,13.50
2023-12-21T23:57:25.479Z,15.23
